ダマスカス の空港の天気 - METARとTAF

ダマスカス国際空港 ( OSDI / DAM ) - シリア ダマスカス
飛行場実況気象(Metar)
観測時間09/30 09:00 EEST (09/30 06:00 UTC)
風向・風速南西 5m/s
視程10km以上
天気現象
なし
気温28℃
湿度42%
気圧1012hPa
METAROSDI 300600Z 22010KT CAVOK 28/14 Q1012
過去の天気等 Google飛行場航空写真 Wunderground天気予報

過去48時間のMETAR

飛行場予報(TAF)
発表時間: -
30日12時 EEST ~ 30日21時 EEST に一時的に
風向・風速南西 5m/s
視程10km以上
少しの雲 雲底高度 910m
TAF OSDI 3006/0112 VRB03KT CAVOK
TEMPO 3009/3018 22010KT 9999 FEW030